Texico, NM (88135)

11:17 AM MDT on October 31, 2014 (GMT -0600)
Clovis Municipal | Change Station
CLOSE
Current Station
Airport
Location: Clovis,
Elevation: 4216 ft
Nearby Weather Stations

Elev 4216 ft 34.43 °N, 103.08 °W | Updated 22 minutes ago

Clear
Clear
55 °F
Feels Like 55 °F
N
10
Wind Variable Wind from SE
Gusts 18 mph

Today
High -- | Low -- °F
--% Chance of Precip.
Yesterday
High -- | Low -- °F
Precip. -- in
7:11 AM 5:59 PM
First Quarter, 57% visible
Pressure 30.49 in
Visibility 10.0 miles
Clouds Clear
Dew Point 30 °F
Humidity 38%
Rainfall 0.00 in
Snow Depth Not available.
UV 4 out of 12
Pollen 5.60 out of 12
Air Quality Not available.
Flu Activity Not available.
METAR KCVN 311655Z AUTO 13009G16KT 10SM CLR 13/M01 A3049 RMK AO1

More Conditions Fewer Conditions

Pressure 30.49 in
Visibility 10.0 miles
Clouds Clear
Dew Point 30 °F
Humidity 38%
Rainfall 0.00 in
Snow Depth Not available.
UV 4 out of 12
Pollen 5.60 out of 12
Air Quality Not available.
Flu Activity Not available.
METAR KCVN 311655Z AUTO 13009G16KT 10SM CLR 13/M01 A3049 RMK AO1

More Conditions Fewer Conditions

10-Day Weather Forecast

Almanac

Astronomy

Oct. 31, 2014 Rise Set
Actual Time
Civil Twilight
Nautical Twilight
Astronomical Twilight
Moon
Length of Visible Light
Length of Day
Tomorrow will be .
, % of the Moon is Illuminated

Today's Extremes

State Highs State Lows

Community

WunderPhotos

Upload Photos

1,766,668 photos uploaded!

WunderBlogs® & News

Nearby

Air Quality

  Air Quality AQ Index Pollutant
Not available.

Snow Depth

Station Depth Elevation

Earthquake Activity

City Distance Mag. Time & Date
Minimum magnitude displayed is 2.5.

Coastal Water Temperatures

Place Temperature

Nearby Weather Stations